Hc Nadja Maria — V2AV4 — position and weather

sailwx.info

Track history (hours):
 
Tides and Currents Weather Stations Pressure Air Temp Water Temp Dewpoint Dewpoint Depression Visibility Wind Speed Wind Dir Waves Ship Positions

Hc Nadja Maria

Last reported at 2017-Oct-18 21:54 UTC. Time now 2017-Oct-22 17:42 UTC.
Position N 49°31' W 004°49'.

Length 130 m; draft 7.6 m.

Type: Cargo ship. MMSI: 304204000.

Date/timePositionNaut miles runAvg speedWind from/ knotsBaromVisibWave heightAir tempDewpointWater temp
2017-Oct-18 21:54N 49°31' W 004°49'512.5
2017-Oct-18 21:29N 49°35' W 004°44'612.5
2017-Oct-18 21:01N 49°40' W 004°38'612.3
2017-Oct-18 20:31N 49°44' W 004°31'612.2
2017-Oct-18 19:59N 49°48' W 004°24'511.0
2017-Oct-18 19:30N 49°51' W 004°17'611.5
2017-Oct-18 19:00N 49°52' W 004°08'611.0
2017-Oct-18 18:25N 49°52' W 003°58'510.7
2017-Oct-18 17:59N 49°53' W 003°51'510.5
2017-Oct-18 17:31N 49°54' W 003°44'510.5
2017-Oct-18 17:01N 49°54' W 003°35'510.6
2017-Oct-18 16:30N 49°54' W 003°27'510.7
2017-Oct-18 16:01N 49°54' W 003°19'611.0
2017-Oct-18 15:31N 49°56' W 003°11'611.8
2017-Oct-18 15:00N 49°58' W 003°02'1312.8
2017-Oct-18 13:59N 50°01' W 002°42'9112.1
2017-Oct-18 06:26N 50°27' W 000°25'410.4
2017-Oct-18 06:00N 50°28' W 000°19'611.0
2017-Oct-18 05:30N 50°30' W 000°10'611.7
2017-Oct-18 05:00N 50°32' W 000°02'612.3
2017-Oct-18 04:30N 50°33' E 000°08'612.9
2017-Oct-18 04:00N 50°35' E 000°17'713.3
2017-Oct-18 03:30N 50°37' E 000°28'713.3
2017-Oct-18 03:00N 50°40' E 000°37'713.2
2017-Oct-18 02:30N 50°44' E 000°45'612.8
2017-Oct-18 02:00N 50°48' E 000°54'912.1
2017-Oct-18 01:16N 50°53' E 001°05'311.7
2017-Oct-18 00:59N 50°55' E 001°09'511.2
2017-Oct-18 00:30N 50°58' E 001°16'510.3
2017-Oct-18 00:00N 51°01' E 001°22'5 9.7
2017-Oct-17 23:30N 51°04' E 001°29'4 8.7
2017-Oct-17 23:00N 51°07' E 001°35'4 8.7
2017-Oct-17 22:30N 51°10' E 001°39'5 9.4
2017-Oct-17 22:00N 51°13' E 001°44'510.3
2017-Oct-17 21:30N 51°18' E 001°48'611.3
2017-Oct-17 21:00N 51°22' E 001°53'612.3
2017-Oct-17 20:30N 51°27' E 001°59'713.2
2017-Oct-17 20:00N 51°32' E 002°06'713.4
2017-Oct-17 19:30N 51°37' E 002°13'713.6
2017-Oct-17 18:57N 51°43' E 002°21'2013.2
2017-Oct-17 17:29N 51°60' E 002°38'712.1
2017-Oct-17 16:51N 52°07' E 002°40'152 8.9
2017-Oct-16 23:47N 54°14' E 004°58'1510.4
2017-Oct-16 22:18N 54°22' E 005°21'6110.8
2017-Oct-16 16:42N 54°54' E 006°50'211.3
2017-Oct-16 16:30N 54°55' E 006°54'611.3
2017-Oct-16 16:00N 54°58' E 007°02'611.5
2017-Oct-16 15:30N 55°01' E 007°10'612.0
2017-Oct-16 15:00N 55°04' E 007°19'1212.5
2017-Oct-16 14:00N 55°11' E 007°37'612.5
2017-Oct-16 13:30N 55°15' E 007°46'713.2
2017-Oct-16 13:00N 55°19' E 007°56'713.5
2017-Oct-16 12:30N 55°23' E 008°05'612.4
2017-Oct-16 12:00N 55°26' E 008°15'611.1
2017-Oct-16 11:30N 55°29' E 008°23'3 5.7
2017-Oct-16 11:00N 55°27' E 008°27'0 0.0
2017-Oct-16 10:28N 55°27' E 008°27'0 0.0
2017-Oct-16 09:58N 55°27' E 008°27'0 0.0
2017-Oct-16 09:25N 55°27' E 008°27'0 0.0
2017-Oct-16 08:58N 55°27' E 008°27'0 0.0
2017-Oct-16 08:28N 55°27' E 008°27'0 0.0
2017-Oct-16 07:58N 55°27' E 008°27'0 0.0
2017-Oct-16 07:28N 55°27' E 008°27'0 0.0
2017-Oct-16 06:58N 55°27' E 008°27'0 0.0
2017-Oct-16 06:28N 55°27' E 008°27'0 0.0
2017-Oct-16 05:46N 55°27' E 008°27'0 0.0
2017-Oct-16 05:13N 55°27' E 008°27'0 0.0
2017-Oct-16 04:58N 55°27' E 008°27'0 0.0
2017-Oct-16 04:19N 55°27' E 008°27'0 0.0
2017-Oct-16 03:49N 55°27' E 008°27'0 0.0
2017-Oct-16 03:20N 55°27' E 008°27'0 0.0
2017-Oct-16 02:46N 55°27' E 008°27'0 0.0
2017-Oct-16 02:19N 55°27' E 008°27'0 0.0
2017-Oct-16 01:37N 55°27' E 008°27'0 0.0
2017-Oct-16 01:22N 55°27' E 008°27'0 0.0
2017-Oct-16 00:52N 55°27' E 008°27'0 0.0
2017-Oct-16 00:07N 55°27' E 008°27'0 0.0
2017-Oct-15 23:55N 55°27' E 008°27'0 0.0
2017-Oct-15 23:22N 55°27' E 008°27'0 0.0
2017-Oct-15 22:52N 55°27' E 008°27'0 0.0
2017-Oct-15 22:25N 55°27' E 008°27'0 0.0
2017-Oct-15 21:55N 55°27' E 008°27'0 0.0
2017-Oct-15 21:25N 55°27' E 008°27'0 0.0
2017-Oct-15 20:55N 55°27' E 008°27'0 0.0
2017-Oct-15 20:28N 55°27' E 008°27'0 0.0
2017-Oct-15 19:52N 55°27' E 008°27'0 0.0
2017-Oct-15 19:28N 55°27' E 008°27'0 0.0
2017-Oct-15 18:55N 55°27' E 008°27'0 0.0
2017-Oct-15 18:28N 55°27' E 008°27'0 0.0
2017-Oct-15 17:58N 55°27' E 008°27'0 0.0
2017-Oct-15 17:22N 55°27' E 008°27'0 0.0
2017-Oct-15 16:46N 55°27' E 008°27'0 0.0
2017-Oct-15 16:13N 55°27' E 008°27'0 0.0
2017-Oct-15 15:58N 55°27' E 008°27'0 0.0
2017-Oct-15 15:28N 55°27' E 008°27'0 0.0
2017-Oct-15 14:49N 55°27' E 008°27'0 0.0
2017-Oct-15 13:58N 55°27' E 008°27'0 0.0
2017-Oct-15 13:19N 55°27' E 008°27'0 0.0
2017-Oct-15 12:49N 55°27' E 008°27'0 0.0
2017-Oct-15 12:25N 55°27' E 008°27'0 0.0
2017-Oct-15 11:52N 55°27' E 008°27'0 0.0
2017-Oct-15 11:22N 55°27' E 008°27'0 0.0
2017-Oct-15 10:52N 55°27' E 008°27'0 0.0
2017-Oct-15 10:22N 55°27' E 008°27'0 0.0
2017-Oct-15 09:58N 55°27' E 008°27'0 0.0
2017-Oct-15 09:28N 55°27' E 008°27'0 0.0
2017-Oct-15 08:55N 55°27' E 008°27'0 0.0
2017-Oct-15 08:25N 55°27' E 008°27'0 0.0
2017-Oct-15 07:55N 55°27' E 008°27'0 0.0
2017-Oct-15 07:22N 55°27' E 008°27'0 0.0
2017-Oct-15 06:55N 55°27' E 008°27'0 0.0
2017-Oct-15 06:28N 55°27' E 008°27'0 0.0
2017-Oct-15 05:55N 55°27' E 008°27'0 0.0
2017-Oct-15 05:28N 55°27' E 008°27'0 0.0
2017-Oct-15 04:58N 55°27' E 008°27'0 0.0
2017-Oct-15 04:25N 55°27' E 008°27'0 0.0
2017-Oct-15 03:55N 55°27' E 008°27'0 0.0
2017-Oct-15 03:28N 55°27' E 008°27'0 0.0
2017-Oct-15 02:58N 55°27' E 008°27'0 0.0
2017-Oct-15 02:01N 55°27' E 008°27'0 0.0
2017-Oct-15 01:43N 55°27' E 008°27'0 0.0
2017-Oct-15 01:28N 55°27' E 008°27'0 0.0
2017-Oct-14 23:49N 55°27' E 008°27'0 0.0
2017-Oct-14 23:16N 55°27' E 008°27'0 0.0
2017-Oct-14 22:52N 55°27' E 008°27'0 0.0
2017-Oct-14 22:16N 55°27' E 008°27'0 0.0
2017-Oct-14 21:49N 55°27' E 008°27'0 0.0
2017-Oct-14 21:19N 55°27' E 008°27'0 0.0
2017-Oct-14 20:49N 55°27' E 008°27'0 0.0
2017-Oct-14 20:16N 55°27' E 008°27'0 0.0
2017-Oct-14 19:49N 55°27' E 008°27'0 0.0
2017-Oct-14 19:04N 55°27' E 008°27'0 0.0
2017-Oct-14 18:55N 55°27' E 008°27'0 0.0
2017-Oct-14 18:19N 55°27' E 008°27'0 0.0
2017-Oct-14 17:55N 55°27' E 008°27'0 0.0
2017-Oct-14 17:28N 55°27' E 008°27'0 0.0
2017-Oct-14 16:52N 55°27' E 008°27'0 0.0
2017-Oct-14 16:28N 55°27' E 008°27'0 0.0
2017-Oct-14 15:43N 55°27' E 008°27'0 0.0
2017-Oct-14 15:28N 55°27' E 008°27'0 0.0
2017-Oct-14 14:55N 55°27' E 008°27'0 0.0
2017-Oct-14 14:25N 55°27' E 008°27'0 0.0
2017-Oct-14 13:58N 55°27' E 008°27'0 0.0
2017-Oct-14 13:28N 55°27' E 008°27'0 0.0
2017-Oct-14 12:58N 55°27' E 008°27'0 0.0
2017-Oct-14 12:16N 55°27' E 008°27'0 0.0
2017-Oct-14 11:58N 55°27' E 008°27'0 0.0
2017-Oct-14 11:28N 55°27' E 008°27'0 0.0
2017-Oct-14 10:58N 55°27' E 008°27'0 0.0
2017-Oct-14 10:28N 55°27' E 008°27'0 0.0
2017-Oct-14 09:52N 55°27' E 008°27'0 0.0
2017-Oct-14 09:19N 55°27' E 008°27'0 0.0
2017-Oct-14 08:49N 55°27' E 008°27'0 0.0
2017-Oct-14 08:16N 55°27' E 008°27'0 0.0
2017-Oct-14 07:49N 55°27' E 008°27'0 0.0
2017-Oct-14 07:22N 55°27' E 008°27'0 0.0
2017-Oct-14 06:52N 55°27' E 008°27'0 0.0
2017-Oct-14 06:16N 55°27' E 008°27'0 0.0
2017-Oct-14 05:58N 55°27' E 008°27'0 0.0
2017-Oct-14 05:25N 55°27' E 008°27'0 0.0
2017-Oct-14 04:40N 55°27' E 008°27'0 0.0
2017-Oct-14 04:25N 55°27' E 008°27'0 0.0
2017-Oct-14 03:55N 55°27' E 008°27'0 0.0
2017-Oct-14 03:25N 55°27' E 008°27'0 0.0
2017-Oct-14 02:58N 55°27' E 008°27'0 0.0
2017-Oct-14 02:22N 55°27' E 008°27'0 0.0
2017-Oct-14 01:55N 55°27' E 008°27'0 0.0
2017-Oct-14 01:10N 55°27' E 008°27'0 0.0
2017-Oct-14 00:55N 55°27' E 008°27'0 0.0
2017-Oct-14 00:01N 55°27' E 008°27'0 0.0
2017-Oct-13 23:58N 55°27' E 008°27'0 0.0
2017-Oct-13 23:16N 55°27' E 008°27'0 0.0
2017-Oct-13 22:58N 55°27' E 008°27'0 0.0
2017-Oct-13 22:13N 55°27' E 008°27'0 0.0
2017-Oct-13 21:58N 55°27' E 008°27'0 0.0
2017-Oct-13 21:19N 55°27' E 008°27'0 0.0
2017-Oct-13 20:58N 55°27' E 008°27'0 0.0
2017-Oct-13 20:19N 55°27' E 008°27'0 0.0
2017-Oct-13 19:58N 55°27' E 008°27'0 0.0
2017-Oct-13 18:46N 55°27' E 008°27'0 0.0
2017-Oct-13 18:19N 55°27' E 008°27'0 0.0
2017-Oct-13 17:46N 55°27' E 008°27'0 0.0
2017-Oct-13 17:22N 55°27' E 008°27'0 0.0
2017-Oct-13 16:37N 55°27' E 008°27'0 0.0
2017-Oct-13 16:22N 55°27' E 008°27'0 0.0
2017-Oct-13 15:55N 55°27' E 008°27'0 0.0
2017-Oct-13 15:19N 55°27' E 008°27'0 0.0
2017-Oct-13 14:52N 55°27' E 008°27'0 0.0
2017-Oct-13 14:22N 55°27' E 008°27'0 0.0
2017-Oct-13 13:40N 55°27' E 008°27'0 0.0
2017-Oct-13 13:22N 55°27' E 008°27'0 0.0
2017-Oct-13 12:58N 55°27' E 008°27'0 0.0
2017-Oct-13 12:28N 55°27' E 008°27'0 0.0
2017-Oct-13 11:58N 55°27' E 008°27'0 0.0
2017-Oct-13 11:28N 55°27' E 008°27'0 0.0
2017-Oct-13 10:58N 55°27' E 008°27'0 0.0
2017-Oct-13 10:25N 55°27' E 008°27'0 0.0
2017-Oct-13 09:55N 55°27' E 008°27'0 0.0
2017-Oct-13 09:28N 55°27' E 008°27'0 0.0
2017-Oct-13 08:16N 55°27' E 008°27'0 0.0
2017-Oct-13 07:43N 55°27' E 008°27'0 0.0
2017-Oct-13 07:19N 55°27' E 008°27'0 0.0
2017-Oct-13 06:58N 55°27' E 008°27'0 0.0
2017-Oct-13 06:13N 55°27' E 008°27'0 0.0
2017-Oct-13 05:49N 55°27' E 008°27'0 0.0
2017-Oct-13 05:16N 55°27' E 008°27'0 0.0
2017-Oct-13 04:49N 55°27' E 008°27'0 0.0
2017-Oct-13 04:22N 55°27' E 008°27'0 0.0
2017-Oct-13 03:52N 55°27' E 008°27'0 0.0
2017-Oct-13 03:22N 55°27' E 008°27'0 0.0
2017-Oct-13 02:34N 55°27' E 008°27'0 0.0
2017-Oct-13 02:22N 55°27' E 008°27'0 0.0
2017-Oct-13 01:55N 55°27' E 008°27'0 0.0
2017-Oct-13 01:25N 55°27' E 008°27'0 0.0
2017-Oct-13 00:52N 55°27' E 008°27'0 0.0
2017-Oct-13 00:14N 55°27' E 008°27'0 0.0
2017-Oct-13 00:00N 55°27' E 008°27'0 0.2
2017-Oct-12 23:30N 55°28' E 008°27'2 3.1
2017-Oct-12 23:00N 55°29' E 008°24'3 6.8
2017-Oct-12 22:30N 55°27' E 008°19'4 8.8
2017-Oct-12 22:00N 55°25' E 008°12'611.9
2017-Oct-12 21:30N 55°29' E 008°04'611.4
2017-Oct-12 20:58N 55°31' E 007°54'511.1
2017-Oct-12 20:30N 55°35' E 007°47'611.1
2017-Oct-12 20:00N 55°41' E 007°46'611.2
2017-Oct-12 19:30N 55°46' E 007°46'611.0
2017-Oct-12 19:00N 55°52' E 007°45'510.8
2017-Oct-12 18:30N 55°57' E 007°45'24 7.1
2017-Oct-12 15:11N 56°20' E 007°38'2 8.3
2017-Oct-12 14:59N 56°21' E 007°40'4 8.1
2017-Oct-12 14:30N 56°24' E 007°45'4 7.9
2017-Oct-12 13:59N 56°27' E 007°50'4 8.5
2017-Oct-12 13:29N 56°31' E 007°52'4 8.6
2017-Oct-12 12:59N 56°36' E 007°53'4 8.6
2017-Oct-12 12:28N 56°40' E 007°55'10 8.2
2017-Oct-12 11:16N 56°49' E 008°03'101 9.0
2017-Oct-12 00:02N 57°47' E 010°37'111.2
2017-Oct-11 23:56N 57°47' E 010°38'4 9.1
2017-Oct-11 23:30N 57°46' E 010°45'612.8
2017-Oct-11 23:00N 57°40' E 010°41'612.4
2017-Oct-11 22:30N 57°36' E 010°33'0 0.0
2017-Oct-11 18:10N 57°36' E 010°33'0 0.0
2017-Oct-11 17:58N 57°36' E 010°33'0 0.1
2017-Oct-11 17:28N 57°36' E 010°33'0 0.1
2017-Oct-11 16:55N 57°36' E 010°33'327 7.5
2017-Oct-09 21:27N 62°06' E 004°28'510.3
2017-Oct-09 21:00N 62°08' E 004°37'510.6
2017-Oct-09 20:30N 62°10' E 004°47'611.4
2017-Oct-09 20:00N 62°12' E 004°58'612.1
2017-Oct-09 19:30N 62°14' E 005°10'611.1
2017-Oct-09 19:00N 62°11' E 005°20'5 9.2
2017-Oct-09 18:30N 62°07' E 005°24'510.4
2017-Oct-09 18:00N 62°03' E 005°31'0 0.7
2017-Oct-09 17:28N 62°03' E 005°31'0 0.0
2017-Oct-09 16:58N 62°03' E 005°31'0 0.0
2017-Oct-09 16:28N 62°03' E 005°31'0 0.0
2017-Oct-09 15:58N 62°03' E 005°31'0 0.0
2017-Oct-09 15:22N 62°03' E 005°31'0 0.0
2017-Oct-09 14:52N 62°03' E 005°31'0 0.0
2017-Oct-09 14:28N 62°03' E 005°31'0 0.0
2017-Oct-09 13:58N 62°03' E 005°31'0 0.0
2017-Oct-09 13:28N 62°03' E 005°31'0 0.0
2017-Oct-09 12:58N 62°03' E 005°31'0 0.0
2017-Oct-09 12:25N 62°03' E 005°31'0 0.0
2017-Oct-09 11:58N 62°03' E 005°31'0 0.0
2017-Oct-09 11:28N 62°03' E 005°31'0 0.0
2017-Oct-09 10:58N 62°03' E 005°31'0 0.0
2017-Oct-09 10:16N 62°03' E 005°31'0 0.0
2017-Oct-09 09:52N 62°03' E 005°31'0 0.0
2017-Oct-09 09:28N 62°03' E 005°31'0 0.0
2017-Oct-09 08:55N 62°03' E 005°31'0 0.0
2017-Oct-09 08:25N 62°03' E 005°31'0 0.0
2017-Oct-09 07:52N 62°03' E 005°31'0 0.0
2017-Oct-09 07:28N 62°03' E 005°31'0 0.0
2017-Oct-09 06:58N 62°03' E 005°31'0 0.0
2017-Oct-09 06:25N 62°03' E 005°31'0 0.0
2017-Oct-09 05:58N 62°03' E 005°31'0 0.0
2017-Oct-09 05:28N 62°03' E 005°31'0 0.0
2017-Oct-09 04:55N 62°03' E 005°31'0 0.0
2017-Oct-09 04:22N 62°03' E 005°31'0 0.0
2017-Oct-09 03:58N 62°03' E 005°31'0 0.0
2017-Oct-09 03:28N 62°03' E 005°31'0 0.0
2017-Oct-09 02:58N 62°03' E 005°31'0 0.0
2017-Oct-09 02:28N 62°03' E 005°31'0 0.0
2017-Oct-09 01:58N 62°03' E 005°31'0 0.0
2017-Oct-09 01:28N 62°03' E 005°31'0 0.0
2017-Oct-09 00:55N 62°03' E 005°31'0 0.0
2017-Oct-09 00:28N 62°03' E 005°31'0 0.0
2017-Oct-08 23:58N 62°03' E 005°31'0 0.0
2017-Oct-08 23:28N 62°03' E 005°31'0 0.0
2017-Oct-08 22:58N 62°03' E 005°31'0 0.0
2017-Oct-08 22:28N 62°03' E 005°31'0 0.0
2017-Oct-08 21:55N 62°03' E 005°31'  
Track history (hours):
 
Tides and Currents Weather Stations Pressure Air Temp Water Temp Dewpoint Dewpoint Depression Visibility Wind Speed Wind Dir Waves Ship Positions

Hc Nadja Maria

Last reported at 2017-Oct-18 21:54 UTC. Time now 2017-Oct-22 17:42 UTC.
Position N 49°31' W 004°49'.

Length 130 m; draft 7.6 m.

Type: Cargo ship. MMSI: 304204000.

Date/timePositionNaut miles runAvg speedWind from/ knotsBaromVisibWave heightAir tempDewpointWater temp
2017-Oct-18 21:54N 49°31' W 004°49'512.5
2017-Oct-18 21:29N 49°35' W 004°44'612.5
2017-Oct-18 21:01N 49°40' W 004°38'612.3
2017-Oct-18 20:31N 49°44' W 004°31'612.2
2017-Oct-18 19:59N 49°48' W 004°24'511.0
2017-Oct-18 19:30N 49°51' W 004°17'611.5
2017-Oct-18 19:00N 49°52' W 004°08'611.0
2017-Oct-18 18:25N 49°52' W 003°58'510.7
2017-Oct-18 17:59N 49°53' W 003°51'510.5
2017-Oct-18 17:31N 49°54' W 003°44'510.5
2017-Oct-18 17:01N 49°54' W 003°35'510.6
2017-Oct-18 16:30N 49°54' W 003°27'510.7
2017-Oct-18 16:01N 49°54' W 003°19'611.0
2017-Oct-18 15:31N 49°56' W 003°11'611.8
2017-Oct-18 15:00N 49°58' W 003°02'1312.8
2017-Oct-18 13:59N 50°01' W 002°42'9112.1
2017-Oct-18 06:26N 50°27' W 000°25'410.4
2017-Oct-18 06:00N 50°28' W 000°19'611.0
2017-Oct-18 05:30N 50°30' W 000°10'611.7
2017-Oct-18 05:00N 50°32' W 000°02'612.3
2017-Oct-18 04:30N 50°33' E 000°08'612.9
2017-Oct-18 04:00N 50°35' E 000°17'713.3
2017-Oct-18 03:30N 50°37' E 000°28'713.3
2017-Oct-18 03:00N 50°40' E 000°37'713.2
2017-Oct-18 02:30N 50°44' E 000°45'612.8
2017-Oct-18 02:00N 50°48' E 000°54'912.1
2017-Oct-18 01:16N 50°53' E 001°05'311.7
2017-Oct-18 00:59N 50°55' E 001°09'511.2
2017-Oct-18 00:30N 50°58' E 001°16'510.3
2017-Oct-18 00:00N 51°01' E 001°22'5 9.7
2017-Oct-17 23:30N 51°04' E 001°29'4 8.7
2017-Oct-17 23:00N 51°07' E 001°35'4 8.7
2017-Oct-17 22:30N 51°10' E 001°39'5 9.4
2017-Oct-17 22:00N 51°13' E 001°44'510.3
2017-Oct-17 21:30N 51°18' E 001°48'611.3
2017-Oct-17 21:00N 51°22' E 001°53'612.3
2017-Oct-17 20:30N 51°27' E 001°59'713.2
2017-Oct-17 20:00N 51°32' E 002°06'713.4
2017-Oct-17 19:30N 51°37' E 002°13'713.6
2017-Oct-17 18:57N 51°43' E 002°21'2013.2
2017-Oct-17 17:29N 51°60' E 002°38'712.1
2017-Oct-17 16:51N 52°07' E 002°40'152 8.9
2017-Oct-16 23:47N 54°14' E 004°58'1510.4
2017-Oct-16 22:18N 54°22' E 005°21'6110.8
2017-Oct-16 16:42N 54°54' E 006°50'211.3
2017-Oct-16 16:30N 54°55' E 006°54'611.3
2017-Oct-16 16:00N 54°58' E 007°02'611.5
2017-Oct-16 15:30N 55°01' E 007°10'612.0
2017-Oct-16 15:00N 55°04' E 007°19'1212.5
2017-Oct-16 14:00N 55°11' E 007°37'612.5
2017-Oct-16 13:30N 55°15' E 007°46'713.2
2017-Oct-16 13:00N 55°19' E 007°56'713.5
2017-Oct-16 12:30N 55°23' E 008°05'612.4
2017-Oct-16 12:00N 55°26' E 008°15'611.1
2017-Oct-16 11:30N 55°29' E 008°23'3 5.7
2017-Oct-16 11:00N 55°27' E 008°27'0 0.0
2017-Oct-16 10:28N 55°27' E 008°27'0 0.0
2017-Oct-16 09:58N 55°27' E 008°27'0 0.0
2017-Oct-16 09:25N 55°27' E 008°27'0 0.0
2017-Oct-16 08:58N 55°27' E 008°27'0 0.0
2017-Oct-16 08:28N 55°27' E 008°27'0 0.0
2017-Oct-16 07:58N 55°27' E 008°27'0 0.0
2017-Oct-16 07:28N 55°27' E 008°27'0 0.0
2017-Oct-16 06:58N 55°27' E 008°27'0 0.0
2017-Oct-16 06:28N 55°27' E 008°27'0 0.0
2017-Oct-16 05:46N 55°27' E 008°27'0 0.0
2017-Oct-16 05:13N 55°27' E 008°27'0 0.0
2017-Oct-16 04:58N 55°27' E 008°27'0 0.0
2017-Oct-16 04:19N 55°27' E 008°27'0 0.0
2017-Oct-16 03:49N 55°27' E 008°27'0 0.0
2017-Oct-16 03:20N 55°27' E 008°27'0 0.0
2017-Oct-16 02:46N 55°27' E 008°27'0 0.0
2017-Oct-16 02:19N 55°27' E 008°27'0 0.0
2017-Oct-16 01:37N 55°27' E 008°27'0 0.0
2017-Oct-16 01:22N 55°27' E 008°27'0 0.0
2017-Oct-16 00:52N 55°27' E 008°27'0 0.0
2017-Oct-16 00:07N 55°27' E 008°27'0 0.0
2017-Oct-15 23:55N 55°27' E 008°27'0 0.0
2017-Oct-15 23:22N 55°27' E 008°27'0 0.0
2017-Oct-15 22:52N 55°27' E 008°27'0 0.0
2017-Oct-15 22:25N 55°27' E 008°27'0 0.0
2017-Oct-15 21:55N 55°27' E 008°27'0 0.0
2017-Oct-15 21:25N 55°27' E 008°27'0 0.0
2017-Oct-15 20:55N 55°27' E 008°27'0 0.0
2017-Oct-15 20:28N 55°27' E 008°27'0 0.0
2017-Oct-15 19:52N 55°27' E 008°27'0 0.0
2017-Oct-15 19:28N 55°27' E 008°27'0 0.0
2017-Oct-15 18:55N 55°27' E 008°27'0 0.0
2017-Oct-15 18:28N 55°27' E 008°27'0 0.0
2017-Oct-15 17:58N 55°27' E 008°27'0 0.0
2017-Oct-15 17:22N 55°27' E 008°27'0 0.0
2017-Oct-15 16:46N 55°27' E 008°27'0 0.0
2017-Oct-15 16:13N 55°27' E 008°27'0 0.0
2017-Oct-15 15:58N 55°27' E 008°27'0 0.0
2017-Oct-15 15:28N 55°27' E 008°27'0 0.0
2017-Oct-15 14:49N 55°27' E 008°27'0 0.0
2017-Oct-15 13:58N 55°27' E 008°27'0 0.0
2017-Oct-15 13:19N 55°27' E 008°27'0 0.0
2017-Oct-15 12:49N 55°27' E 008°27'0 0.0
2017-Oct-15 12:25N 55°27' E 008°27'0 0.0
2017-Oct-15 11:52N 55°27' E 008°27'0 0.0
2017-Oct-15 11:22N 55°27' E 008°27'0 0.0
2017-Oct-15 10:52N 55°27' E 008°27'0 0.0
2017-Oct-15 10:22N 55°27' E 008°27'0 0.0
2017-Oct-15 09:58N 55°27' E 008°27'0 0.0
2017-Oct-15 09:28N 55°27' E 008°27'0 0.0
2017-Oct-15 08:55N 55°27' E 008°27'0 0.0
2017-Oct-15 08:25N 55°27' E 008°27'0 0.0
2017-Oct-15 07:55N 55°27' E 008°27'0 0.0
2017-Oct-15 07:22N 55°27' E 008°27'0 0.0
2017-Oct-15 06:55N 55°27' E 008°27'0 0.0
2017-Oct-15 06:28N 55°27' E 008°27'0 0.0
2017-Oct-15 05:55N 55°27' E 008°27'0 0.0
2017-Oct-15 05:28N 55°27' E 008°27'0 0.0
2017-Oct-15 04:58N 55°27' E 008°27'0 0.0
2017-Oct-15 04:25N 55°27' E 008°27'0 0.0
2017-Oct-15 03:55N 55°27' E 008°27'0 0.0
2017-Oct-15 03:28N 55°27' E 008°27'0 0.0
2017-Oct-15 02:58N 55°27' E 008°27'0 0.0
2017-Oct-15 02:01N 55°27' E 008°27'0 0.0
2017-Oct-15 01:43N 55°27' E 008°27'0 0.0
2017-Oct-15 01:28N 55°27' E 008°27'0 0.0
2017-Oct-14 23:49N 55°27' E 008°27'0 0.0
2017-Oct-14 23:16N 55°27' E 008°27'0 0.0
2017-Oct-14 22:52N 55°27' E 008°27'0 0.0
2017-Oct-14 22:16N 55°27' E 008°27'0 0.0
2017-Oct-14 21:49N 55°27' E 008°27'0 0.0
2017-Oct-14 21:19N 55°27' E 008°27'0 0.0
2017-Oct-14 20:49N 55°27' E 008°27'0 0.0
2017-Oct-14 20:16N 55°27' E 008°27'0 0.0
2017-Oct-14 19:49N 55°27' E 008°27'0 0.0
2017-Oct-14 19:04N 55°27' E 008°27'0 0.0
2017-Oct-14 18:55N 55°27' E 008°27'0 0.0
2017-Oct-14 18:19N 55°27' E 008°27'0 0.0
2017-Oct-14 17:55N 55°27' E 008°27'0 0.0
2017-Oct-14 17:28N 55°27' E 008°27'0 0.0
2017-Oct-14 16:52N 55°27' E 008°27'0 0.0
2017-Oct-14 16:28N 55°27' E 008°27'0 0.0
2017-Oct-14 15:43N 55°27' E 008°27'0 0.0
2017-Oct-14 15:28N 55°27' E 008°27'0 0.0
2017-Oct-14 14:55N 55°27' E 008°27'0 0.0
2017-Oct-14 14:25N 55°27' E 008°27'0 0.0
2017-Oct-14 13:58N 55°27' E 008°27'0 0.0
2017-Oct-14 13:28N 55°27' E 008°27'0 0.0
2017-Oct-14 12:58N 55°27' E 008°27'0 0.0
2017-Oct-14 12:16N 55°27' E 008°27'0 0.0
2017-Oct-14 11:58N 55°27' E 008°27'0 0.0
2017-Oct-14 11:28N 55°27' E 008°27'0 0.0
2017-Oct-14 10:58N 55°27' E 008°27'0 0.0
2017-Oct-14 10:28N 55°27' E 008°27'0 0.0
2017-Oct-14 09:52N 55°27' E 008°27'0 0.0
2017-Oct-14 09:19N 55°27' E 008°27'0 0.0
2017-Oct-14 08:49N 55°27' E 008°27'0 0.0
2017-Oct-14 08:16N 55°27' E 008°27'0 0.0
2017-Oct-14 07:49N 55°27' E 008°27'0 0.0
2017-Oct-14 07:22N 55°27' E 008°27'0 0.0
2017-Oct-14 06:52N 55°27' E 008°27'0 0.0
2017-Oct-14 06:16N 55°27' E 008°27'0 0.0
2017-Oct-14 05:58N 55°27' E 008°27'0 0.0
2017-Oct-14 05:25N 55°27' E 008°27'0 0.0
2017-Oct-14 04:40N 55°27' E 008°27'0 0.0
2017-Oct-14 04:25N 55°27' E 008°27'0 0.0
2017-Oct-14 03:55N 55°27' E 008°27'0 0.0
2017-Oct-14 03:25N 55°27' E 008°27'0 0.0
2017-Oct-14 02:58N 55°27' E 008°27'0 0.0
2017-Oct-14 02:22N 55°27' E 008°27'0 0.0
2017-Oct-14 01:55N 55°27' E 008°27'0 0.0
2017-Oct-14 01:10N 55°27' E 008°27'0 0.0
2017-Oct-14 00:55N 55°27' E 008°27'0 0.0
2017-Oct-14 00:01N 55°27' E 008°27'0 0.0
2017-Oct-13 23:58N 55°27' E 008°27'0 0.0
2017-Oct-13 23:16N 55°27' E 008°27'0 0.0
2017-Oct-13 22:58N 55°27' E 008°27'0 0.0
2017-Oct-13 22:13N 55°27' E 008°27'0 0.0
2017-Oct-13 21:58N 55°27' E 008°27'0 0.0
2017-Oct-13 21:19N 55°27' E 008°27'0 0.0
2017-Oct-13 20:58N 55°27' E 008°27'0 0.0
2017-Oct-13 20:19N 55°27' E 008°27'0 0.0
2017-Oct-13 19:58N 55°27' E 008°27'0 0.0
2017-Oct-13 18:46N 55°27' E 008°27'0 0.0
2017-Oct-13 18:19N 55°27' E 008°27'0 0.0
2017-Oct-13 17:46N 55°27' E 008°27'0 0.0
2017-Oct-13 17:22N 55°27' E 008°27'0 0.0
2017-Oct-13 16:37N 55°27' E 008°27'0 0.0
2017-Oct-13 16:22N 55°27' E 008°27'0 0.0
2017-Oct-13 15:55N 55°27' E 008°27'0 0.0
2017-Oct-13 15:19N 55°27' E 008°27'0 0.0
2017-Oct-13 14:52N 55°27' E 008°27'0 0.0
2017-Oct-13 14:22N 55°27' E 008°27'0 0.0
2017-Oct-13 13:40N 55°27' E 008°27'0 0.0
2017-Oct-13 13:22N 55°27' E 008°27'0 0.0
2017-Oct-13 12:58N 55°27' E 008°27'0 0.0
2017-Oct-13 12:28N 55°27' E 008°27'0 0.0
2017-Oct-13 11:58N 55°27' E 008°27'0 0.0
2017-Oct-13 11:28N 55°27' E 008°27'0 0.0
2017-Oct-13 10:58N 55°27' E 008°27'0 0.0
2017-Oct-13 10:25N 55°27' E 008°27'0 0.0
2017-Oct-13 09:55N 55°27' E 008°27'0 0.0
2017-Oct-13 09:28N 55°27' E 008°27'0 0.0
2017-Oct-13 08:16N 55°27' E 008°27'0 0.0
2017-Oct-13 07:43N 55°27' E 008°27'0 0.0
2017-Oct-13 07:19N 55°27' E 008°27'0 0.0
2017-Oct-13 06:58N 55°27' E 008°27'0 0.0
2017-Oct-13 06:13N 55°27' E 008°27'0 0.0
2017-Oct-13 05:49N 55°27' E 008°27'0 0.0
2017-Oct-13 05:16N 55°27' E 008°27'0 0.0
2017-Oct-13 04:49N 55°27' E 008°27'0 0.0
2017-Oct-13 04:22N 55°27' E 008°27'0 0.0
2017-Oct-13 03:52N 55°27' E 008°27'0 0.0
2017-Oct-13 03:22N 55°27' E 008°27'0 0.0
2017-Oct-13 02:34N 55°27' E 008°27'0 0.0
2017-Oct-13 02:22N 55°27' E 008°27'0 0.0
2017-Oct-13 01:55N 55°27' E 008°27'0 0.0
2017-Oct-13 01:25N 55°27' E 008°27'0 0.0
2017-Oct-13 00:52N 55°27' E 008°27'0 0.0
2017-Oct-13 00:14N 55°27' E 008°27'0 0.0
2017-Oct-13 00:00N 55°27' E 008°27'0 0.2
2017-Oct-12 23:30N 55°28' E 008°27'2 3.1
2017-Oct-12 23:00N 55°29' E 008°24'3 6.8
2017-Oct-12 22:30N 55°27' E 008°19'4 8.8
2017-Oct-12 22:00N 55°25' E 008°12'611.9
2017-Oct-12 21:30N 55°29' E 008°04'611.4
2017-Oct-12 20:58N 55°31' E 007°54'511.1
2017-Oct-12 20:30N 55°35' E 007°47'611.1
2017-Oct-12 20:00N 55°41' E 007°46'611.2
2017-Oct-12 19:30N 55°46' E 007°46'611.0
2017-Oct-12 19:00N 55°52' E 007°45'510.8
2017-Oct-12 18:30N 55°57' E 007°45'24 7.1
2017-Oct-12 15:11N 56°20' E 007°38'2 8.3
2017-Oct-12 14:59N 56°21' E 007°40'4 8.1
2017-Oct-12 14:30N 56°24' E 007°45'4 7.9
2017-Oct-12 13:59N 56°27' E 007°50'4 8.5
2017-Oct-12 13:29N 56°31' E 007°52'4 8.6
2017-Oct-12 12:59N 56°36' E 007°53'4 8.6
2017-Oct-12 12:28N 56°40' E 007°55'10 8.2
2017-Oct-12 11:16N 56°49' E 008°03'101 9.0
2017-Oct-12 00:02N 57°47' E 010°37'111.2
2017-Oct-11 23:56N 57°47' E 010°38'4 9.1
2017-Oct-11 23:30N 57°46' E 010°45'612.8
2017-Oct-11 23:00N 57°40' E 010°41'612.4
2017-Oct-11 22:30N 57°36' E 010°33'0 0.0
2017-Oct-11 18:10N 57°36' E 010°33'0 0.0
2017-Oct-11 17:58N 57°36' E 010°33'0 0.1
2017-Oct-11 17:28N 57°36' E 010°33'0 0.1
2017-Oct-11 16:55N 57°36' E 010°33'327 7.5
2017-Oct-09 21:27N 62°06' E 004°28'510.3
2017-Oct-09 21:00N 62°08' E 004°37'510.6
2017-Oct-09 20:30N 62°10' E 004°47'611.4
2017-Oct-09 20:00N 62°12' E 004°58'612.1
2017-Oct-09 19:30N 62°14' E 005°10'611.1
2017-Oct-09 19:00N 62°11' E 005°20'5 9.2
2017-Oct-09 18:30N 62°07' E 005°24'510.4
2017-Oct-09 18:00N 62°03' E 005°31'0 0.7
2017-Oct-09 17:28N 62°03' E 005°31'0 0.0
2017-Oct-09 16:58N 62°03' E 005°31'0 0.0
2017-Oct-09 16:28N 62°03' E 005°31'0 0.0
2017-Oct-09 15:58N 62°03' E 005°31'0 0.0
2017-Oct-09 15:22N 62°03' E 005°31'0 0.0
2017-Oct-09 14:52N 62°03' E 005°31'0 0.0
2017-Oct-09 14:28N 62°03' E 005°31'0 0.0
2017-Oct-09 13:58N 62°03' E 005°31'0 0.0
2017-Oct-09 13:28N 62°03' E 005°31'0 0.0
2017-Oct-09 12:58N 62°03' E 005°31'0 0.0
2017-Oct-09 12:25N 62°03' E 005°31'0 0.0
2017-Oct-09 11:58N 62°03' E 005°31'0 0.0
2017-Oct-09 11:28N 62°03' E 005°31'0 0.0
2017-Oct-09 10:58N 62°03' E 005°31'0 0.0
2017-Oct-09 10:16N 62°03' E 005°31'0 0.0
2017-Oct-09 09:52N 62°03' E 005°31'0 0.0
2017-Oct-09 09:28N 62°03' E 005°31'0 0.0
2017-Oct-09 08:55N 62°03' E 005°31'0 0.0
2017-Oct-09 08:25N 62°03' E 005°31'0 0.0
2017-Oct-09 07:52N 62°03' E 005°31'0 0.0
2017-Oct-09 07:28N 62°03' E 005°31'0 0.0
2017-Oct-09 06:58N 62°03' E 005°31'0 0.0
2017-Oct-09 06:25N 62°03' E 005°31'0 0.0
2017-Oct-09 05:58N 62°03' E 005°31'0 0.0
2017-Oct-09 05:28N 62°03' E 005°31'0 0.0
2017-Oct-09 04:55N 62°03' E 005°31'0 0.0
2017-Oct-09 04:22N 62°03' E 005°31'0 0.0
2017-Oct-09 03:58N 62°03' E 005°31'0 0.0
2017-Oct-09 03:28N 62°03' E 005°31'0 0.0
2017-Oct-09 02:58N 62°03' E 005°31'0 0.0
2017-Oct-09 02:28N 62°03' E 005°31'0 0.0
2017-Oct-09 01:58N 62°03' E 005°31'0 0.0
2017-Oct-09 01:28N 62°03' E 005°31'0 0.0
2017-Oct-09 00:55N 62°03' E 005°31'0 0.0
2017-Oct-09 00:28N 62°03' E 005°31'0 0.0
2017-Oct-08 23:58N 62°03' E 005°31'0 0.0
2017-Oct-08 23:28N 62°03' E 005°31'0 0.0
2017-Oct-08 22:58N 62°03' E 005°31'0 0.0
2017-Oct-08 22:28N 62°03' E 005°31'0 0.0
2017-Oct-08 21:55N 62°03' E 005°31'  

Dump ship's entire track history